Terminal Aerodrome Forecast
Issued by NWS Grand Forks, ND

Home | Current Version | Previous Version | Text Only | Print | Product List | Glossary Off
Versions: 1 2 3 4 5 6 7 8 9 10 11 12 13 14 15 16

000
FTUS43 KFGF 131700
TAFGFK
TAF
KGFK 131720Z 1318/1418 20013G20KT P6SM FEW100 OVC200
     FM140000 22010KT P6SM VCSH BKN090
      TEMPO 1400/1403 -SHRA
     FM140400 27007KT P6SM BKN120=

USA.gov is the U.S. government's official web portal to all federal, state and local government web resources and services.